Saint Lawrence, South Dakota
Current Conditions -  °F | °C
As of 11:55 AM on Friday 24 Oct 2014 (Local Time) from KHON Reporting Station
Clear Clear  
Wind Chill: 62°   Ceiling: Unl
Heat Index: 62°   Visibility: 10mi
Dew Point: 42°   Wind: 0mph
Humidity: 48%   Direction: NA
Pressure: 29.91"   Gusts: NA
Location:  44.52°N, 98.94°W
Report Text: KHON 241655Z AUTO 00000KT 10SM CLR 17/06 A2991 RMK AO2 SLP128 T01670056
Loading
Personal Weather Stations






























Interactive Weather Map
Tropical Storm Tracking
New forecast layout! Learn more

10-Day Weather Forecast

Advertisements
Track Severe Weather on mobile